Time;durP1;ratioP1;P1;durP2;ratioP2;P2;SDS_P1;SDS_P2;PMS_P1;PMS_P2;Temp;Humidity;BMP_temperature;BMP_pressure;BME280_temperature;BME280_humidity;BME280_pressure;Samples;Min_cycle;Max_cycle;Signal;HPM_P1;HPM_P2
2022/03/17 00:01:50;;;;;;;95.85;49.13;;;1.80;92.40;;;;;;5073278;28;20103;-74
2022/03/17 00:04:15;;;;;;;102.43;53.15;;;1.80;93.60;;;;;;5073382;28;20024;-74
2022/03/17 00:06:41;;;;;;;95.07;50.17;;;1.80;94.80;;;;;;5073275;28;20032;-74
2022/03/17 00:09:07;;;;;;;89.45;47.33;;;1.70;95.90;;;;;;5072853;28;20103;-74
2022/03/17 00:11:34;;;;;;;83.47;46.67;;;1.70;96.90;;;;;;5073202;28;20108;-74
2022/03/17 00:14:01;;;;;;;102.78;51.40;;;1.70;98.30;;;;;;5073185;28;20021;-74
2022/03/17 00:16:28;;;;;;;94.40;49.38;;;1.70;97.90;;;;;;5073238;28;20016;-73
2022/03/17 00:18:54;;;;;;;94.95;49.22;;;1.70;98.00;;;;;;5072899;28;20032;-74
2022/03/17 00:21:20;;;;;;;91.45;49.78;;;1.70;98.40;;;;;;5073069;28;20021;-74
2022/03/17 00:23:45;;;;;;;91.25;45.15;;;1.70;99.30;;;;;;5055553;28;20038;-75
2022/03/17 00:26:11;;;;;;;92.07;49.20;;;1.60;99.40;;;;;;5073064;28;20036;-73
2022/03/17 00:28:36;;;;;;;88.45;49.30;;;1.60;99.50;;;;;;5073138;28;20092;-73
2022/03/17 00:31:02;;;;;;;96.53;49.70;;;1.60;99.90;;;;;;5074675;28;20027;-74
2022/03/17 00:33:27;;;;;;;96.05;50.17;;;1.60;99.90;;;;;;5091160;28;20050;-74
2022/03/17 00:35:53;;;;;;;92.65;49.58;;;1.50;99.90;;;;;;5117918;28;20027;-74
2022/03/17 00:38:19;;;;;;;97.15;49.35;;;1.50;99.90;;;;;;5099640;28;20016;-74
2022/03/17 00:40:46;;;;;;;91.32;49.40;;;1.50;99.90;;;;;;5117806;28;20481;-74
2022/03/17 00:43:14;;;;;;;101.18;51.15;;;1.50;99.90;;;;;;5117832;28;20019;-73
2022/03/17 00:45:41;;;;;;;88.72;51.22;;;1.50;99.90;;;;;;5117822;28;20400;-73
2022/03/17 00:48:07;;;;;;;89.82;49.60;;;1.40;99.90;;;;;;5117246;28;20525;-73
2022/03/17 00:50:34;;;;;;;93.47;51.13;;;1.40;99.90;;;;;;5117618;28;20072;-73
2022/03/17 00:53:00;;;;;;;93.70;49.28;;;1.40;99.90;;;;;;5117510;28;20035;-73
2022/03/17 00:55:27;;;;;;;97.75;54.65;;;1.30;99.90;;;;;;5117569;28;20141;-74
2022/03/17 00:57:52;;;;;;;90.85;46.72;;;1.30;99.90;;;;;;5117266;28;20024;-73
2022/03/17 01:00:20;;;;;;;103.00;51.03;;;1.30;99.90;;;;;;5117325;28;20026;-75
2022/03/17 01:02:48;;;;;;;91.53;46.97;;;1.30;99.90;;;;;;5117192;28;20089;-73
2022/03/17 01:05:14;;;;;;;92.45;48.88;;;1.40;99.90;;;;;;5117105;28;20032;-74
2022/03/17 01:07:40;;;;;;;96.38;47.97;;;1.40;99.90;;;;;;5117098;28;20392;-73
2022/03/17 01:10:07;;;;;;;80.78;47.35;;;1.40;99.90;;;;;;5117228;28;20018;-74
2022/03/17 01:12:33;;;;;;;88.07;47.90;;;1.40;99.90;;;;;;5117121;28;20388;-73
2022/03/17 01:15:00;;;;;;;87.47;47.85;;;1.40;99.90;;;;;;5117013;28;20030;-74
2022/03/17 01:17:26;;;;;;;86.47;46.97;;;1.40;99.90;;;;;;5117003;28;20362;-74
2022/03/17 01:19:52;;;;;;;93.85;47.63;;;1.40;99.90;;;;;;5116960;28;20050;-73
2022/03/17 01:22:18;;;;;;;87.13;48.22;;;1.30;99.90;;;;;;5116868;28;20469;-73
2022/03/17 01:24:45;;;;;;;90.35;47.42;;;1.30;99.90;;;;;;5116850;28;20020;-74
2022/03/17 01:27:11;;;;;;;82.88;47.70;;;1.30;99.90;;;;;;5116761;28;20055;-73
2022/03/17 01:29:38;;;;;;;88.38;46.28;;;1.30;99.90;;;;;;5116838;28;20020;-74
2022/03/17 01:32:04;;;;;;;92.43;46.97;;;1.30;99.90;;;;;;5098233;28;20058;-74
2022/03/17 01:34:30;;;;;;;96.95;49.97;;;1.20;99.90;;;;;;5098531;28;20473;-73
2022/03/17 01:36:55;;;;;;;87.78;47.25;;;1.20;99.90;;;;;;5116630;28;20380;-73
2022/03/17 01:39:21;;;;;;;87.60;44.97;;;1.20;99.90;;;;;;5116738;28;20052;-74
2022/03/17 01:41:46;;;;;;;86.10;44.55;;;1.20;99.90;;;;;;5116238;28;20035;-73
2022/03/17 01:44:12;;;;;;;93.68;49.08;;;1.20;99.90;;;;;;5116556;28;20031;-74
2022/03/17 01:49:22;;;;;;;87.75;46.85;;;1.20;99.90;;;;;;5116650;28;20396;-73
2022/03/17 01:51:50;;;;;;;89.10;46.40;;;1.20;99.90;;;;;;5116443;28;20098;-73
2022/03/17 01:54:18;;;;;;;92.90;50.03;;;1.10;99.90;;;;;;5116294;28;20086;-74
2022/03/17 01:56:45;;;;;;;86.85;48.67;;;1.10;99.90;;;;;;5116227;28;20122;-73
2022/03/17 01:59:12;;;;;;;84.60;47.20;;;1.10;99.90;;;;;;5097997;28;20024;-74
2022/03/17 02:01:38;;;;;;;84.13;46.13;;;1.10;99.90;;;;;;5116192;28;20019;-73
2022/03/17 02:04:05;;;;;;;85.82;46.88;;;1.00;99.90;;;;;;5116017;28;20508;-74
2022/03/17 02:06:31;;;;;;;86.97;45.45;;;1.00;99.90;;;;;;5116159;28;20036;-74
2022/03/17 02:08:57;;;;;;;84.90;46.50;;;1.00;99.90;;;;;;5097713;28;20024;-73
2022/03/17 02:14:06;;;;;;;88.53;48.35;;;0.80;99.90;;;;;;5116281;28;20043;-73
2022/03/17 02:16:32;;;;;;;88.70;47.17;;;0.80;99.90;;;;;;5116032;28;20015;-73
2022/03/17 02:18:59;;;;;;;94.32;49.20;;;0.70;99.90;;;;;;5115902;28;20393;-74
2022/03/17 02:21:25;;;;;;;93.63;46.70;;;0.70;99.90;;;;;;5115816;28;20027;-73
2022/03/17 02:26:37;;;;;;;90.35;47.53;;;0.60;99.90;;;;;;5116059;28;20047;-74
2022/03/17 02:29:02;;;;;;;90.40;47.97;;;0.50;99.90;;;;;;5115647;28;20049;-73
2022/03/17 02:31:28;;;;;;;94.55;47.50;;;0.50;99.90;;;;;;5115616;28;20020;-73
2022/03/17 02:33:53;;;;;;;89.47;45.55;;;0.40;99.90;;;;;;5115578;28;20050;-74
2022/03/17 02:36:19;;;;;;;90.55;45.65;;;0.30;99.90;;;;;;5115520;28;20019;-74
2022/03/17 02:38:45;;;;;;;92.13;48.63;;;0.30;99.90;;;;;;5115633;28;20020;-74
2022/03/17 02:41:21;;;;;;;89.25;46.90;;;0.20;99.90;;;;;;5115448;28;20027;-73
2022/03/17 02:43:49;;;;;;;91.43;47.53;;;0.20;99.90;;;;;;5115547;28;20115;-73
2022/03/17 02:46:15;;;;;;;91.50;46.45;;;0.10;99.90;;;;;;5115353;28;20038;-73
2022/03/17 02:48:40;;;;;;;91.18;47.72;;;0.10;99.90;;;;;;5115370;28;20098;-74
2022/03/17 02:51:06;;;;;;;84.10;45.95;;;0.10;99.90;;;;;;5115151;28;20024;-74
2022/03/17 02:53:31;;;;;;;100.75;48.40;;;0.10;99.90;;;;;;5114628;28;20016;-73
2022/03/17 02:55:57;;;;;;;94.75;47.60;;;0.10;99.90;;;;;;5115152;28;20027;-74
2022/03/17 02:58:22;;;;;;;86.38;43.97;;;0.00;99.90;;;;;;5112405;28;20051;-74
2022/03/17 03:00:48;;;;;;;99.40;48.13;;;0.00;99.90;;;;;;5096347;28;20031;-73
2022/03/17 03:03:17;;;;;;;92.97;48.75;;;-0.10;99.90;;;;;;5096711;28;20032;-73
2022/03/17 03:05:42;;;;;;;96.18;49.03;;;-0.10;99.90;;;;;;5114884;28;20015;-74
2022/03/17 03:08:08;;;;;;;93.65;50.53;;;-0.10;99.90;;;;;;5096596;28;20035;-73
2022/03/17 03:10:34;;;;;;;92.28;48.58;;;-0.20;99.90;;;;;;5114930;28;20019;-73
2022/03/17 03:13:00;;;;;;;97.03;49.97;;;-0.20;99.90;;;;;;5114847;28;20027;-73
2022/03/17 03:15:26;;;;;;;96.70;47.72;;;-0.20;99.90;;;;;;5096471;28;20091;-73
2022/03/17 03:17:51;;;;;;;90.47;48.13;;;-0.20;99.90;;;;;;5114657;28;20498;-73
2022/03/17 03:20:17;;;;;;;89.50;46.60;;;-0.20;99.90;;;;;;5114635;28;20031;-73
2022/03/17 03:22:42;;;;;;;90.30;48.15;;;-0.20;99.90;;;;;;5096493;28;20028;-73
2022/03/17 03:25:09;;;;;;;92.15;47.17;;;-0.20;99.90;;;;;;5096239;28;20044;-73
2022/03/17 03:27:37;;;;;;;85.28;46.95;;;-0.20;99.90;;;;;;5096203;28;20031;-74
2022/03/17 03:30:03;;;;;;;92.90;45.85;;;-0.20;99.90;;;;;;5114412;28;20491;-73
2022/03/17 03:32:29;;;;;;;82.30;44.33;;;-0.20;99.90;;;;;;5096020;28;20051;-74
2022/03/17 03:34:54;;;;;;;90.90;47.58;;;-0.20;99.90;;;;;;5114417;28;20095;-74
2022/03/17 03:37:23;;;;;;;78.53;45.05;;;-0.20;99.90;;;;;;5114243;28;20030;-73
2022/03/17 03:39:50;;;;;;;86.68;44.35;;;-0.10;99.90;;;;;;5114477;28;20027;-73
2022/03/17 03:42:15;;;;;;;83.63;44.20;;;-0.10;99.90;;;;;;5114332;28;20081;-73
2022/03/17 03:44:41;;;;;;;87.68;46.80;;;0.00;99.90;;;;;;5096109;28;20019;-74
2022/03/17 03:47:07;;;;;;;93.53;47.28;;;0.00;99.90;;;;;;5113933;28;20115;-73
2022/03/17 03:49:33;;;;;;;87.88;46.17;;;0.00;99.90;;;;;;5114057;28;20023;-74
2022/03/17 03:51:59;;;;;;;82.57;44.33;;;0.00;99.90;;;;;;5114013;28;20019;-74
2022/03/17 03:54:24;;;;;;;89.00;45.58;;;0.00;99.90;;;;;;5095929;28;20110;-73
2022/03/17 03:56:52;;;;;;;85.88;43.20;;;0.00;99.90;;;;;;5113970;28;20030;-73
2022/03/17 03:59:23;;;;;;;90.35;46.22;;;-0.10;99.90;;;;;;5113916;28;20039;-72
2022/03/17 04:01:50;;;;;;;88.30;43.40;;;-0.10;99.90;;;;;;5113986;28;20028;-74
2022/03/17 04:04:20;;;;;;;84.60;45.00;;;-0.10;99.90;;;;;;5113875;28;20027;-73
2022/03/17 04:06:50;;;;;;;88.45;46.45;;;-0.10;99.90;;;;;;5113791;28;20032;-73
2022/03/17 04:09:18;;;;;;;83.45;46.58;;;-0.10;99.90;;;;;;5113766;28;20447;-73
2022/03/17 04:11:45;;;;;;;92.78;50.08;;;-0.10;99.90;;;;;;5113751;28;20031;-73
2022/03/17 04:14:12;;;;;;;90.10;45.30;;;-0.20;99.90;;;;;;5113814;28;20012;-73
2022/03/17 04:16:38;;;;;;;91.60;48.20;;;-0.20;99.90;;;;;;5113768;28;20046;-73
2022/03/17 04:19:04;;;;;;;89.45;49.03;;;-0.30;99.90;;;;;;5113841;28;20370;-73
2022/03/17 04:21:30;;;;;;;91.13;47.25;;;-0.50;99.90;;;;;;5113742;28;20473;-73
2022/03/17 04:23:56;;;;;;;87.75;44.85;;;-0.60;99.90;;;;;;5113768;28;20023;-74
2022/03/17 04:26:22;;;;;;;86.93;44.92;;;-0.70;99.90;;;;;;5113605;28;20042;-73
2022/03/17 04:28:48;;;;;;;89.47;45.10;;;-0.80;99.90;;;;;;5113633;28;20024;-74
2022/03/17 04:31:13;;;;;;;93.72;46.65;;;-0.90;99.90;;;;;;5113486;28;20035;-73
2022/03/17 04:33:39;;;;;;;93.20;49.70;;;-1.00;99.90;;;;;;5114187;28;20052;-74
2022/03/17 04:36:06;;;;;;;87.60;45.00;;;-1.00;99.90;;;;;;5113536;28;20396;-73
2022/03/17 04:38:32;;;;;;;88.15;47.20;;;-1.10;99.90;;;;;;5095248;28;20023;-74
2022/03/17 04:40:57;;;;;;;92.88;48.13;;;-1.10;99.90;;;;;;5095218;28;20027;-74
2022/03/17 04:43:24;;;;;;;93.90;47.13;;;-1.10;99.90;;;;;;5113537;28;20038;-73
2022/03/17 04:45:49;;;;;;;90.55;45.80;;;-1.20;99.90;;;;;;5113500;28;20039;-74
2022/03/17 04:48:15;;;;;;;92.45;48.67;;;-1.20;99.90;;;;;;5113471;28;20059;-73
2022/03/17 04:50:41;;;;;;;92.63;45.85;;;-1.20;99.90;;;;;;5113436;28;20020;-74
2022/03/17 04:55:51;;;;;;;83.97;46.72;;;-1.30;99.90;;;;;;5113777;28;20120;-74
2022/03/17 04:58:17;;;;;;;90.10;46.03;;;-1.40;99.90;;;;;;5095253;28;20489;-73
2022/03/17 05:00:43;;;;;;;100.15;47.03;;;-1.40;99.90;;;;;;5113504;28;20031;-73
2022/03/17 05:03:09;;;;;;;93.68;48.40;;;-1.50;99.90;;;;;;5094752;28;20019;-73
2022/03/17 05:05:35;;;;;;;88.03;46.75;;;-1.40;99.90;;;;;;5096943;28;20036;-72
2022/03/17 05:08:00;;;;;;;86.63;43.78;;;-1.40;99.90;;;;;;5092850;28;20543;-73
2022/03/17 05:10:28;;;;;;;91.75;45.60;;;-1.40;99.90;;;;;;5092978;28;20016;-74
2022/03/17 05:12:54;;;;;;;89.60;46.97;;;-1.40;99.90;;;;;;5092714;28;20111;-72
2022/03/17 05:15:20;;;;;;;86.97;45.78;;;-1.40;99.90;;;;;;5092681;28;20052;-73
2022/03/17 05:17:47;;;;;;;88.20;47.35;;;-1.30;99.90;;;;;;5095557;28;20031;-73
2022/03/17 05:20:13;;;;;;;93.90;46.88;;;-1.30;99.90;;;;;;5096502;28;20055;-72
2022/03/17 05:22:43;;;;;;;88.95;45.42;;;-1.30;99.90;;;;;;5096501;28;20028;-72
2022/03/17 05:25:10;;;;;;;94.20;46.70;;;-1.20;99.90;;;;;;5096625;28;20103;-73
2022/03/17 05:27:37;;;;;;;89.53;49.88;;;-1.20;99.90;;;;;;5096392;28;20032;-73
2022/03/17 05:30:03;;;;;;;87.90;44.53;;;-1.20;99.90;;;;;;5096376;28;20022;-73
2022/03/17 05:32:29;;;;;;;88.32;47.03;;;-1.20;99.90;;;;;;5095923;28;20513;-73
2022/03/17 05:34:54;;;;;;;83.55;44.97;;;-1.10;99.90;;;;;;5077902;28;20016;-72
2022/03/17 05:37:20;;;;;;;82.97;42.15;;;-1.00;99.90;;;;;;5096222;28;20149;-73
2022/03/17 05:39:45;;;;;;;90.97;45.97;;;-0.90;99.90;;;;;;5078193;28;20077;-73
2022/03/17 05:42:11;;;;;;;86.03;45.10;;;-0.80;99.90;;;;;;5096074;28;20027;-74
2022/03/17 05:44:37;;;;;;;86.45;43.08;;;-0.80;99.90;;;;;;5096155;28;20039;-73
2022/03/17 05:47:03;;;;;;;88.93;45.03;;;-0.70;99.90;;;;;;5077784;28;20198;-73
2022/03/17 05:49:28;;;;;;;88.13;47.15;;;-0.70;99.90;;;;;;5096191;28;20020;-74
2022/03/17 05:51:54;;;;;;;90.07;43.30;;;-0.60;99.90;;;;;;5096035;28;20024;-73
2022/03/17 05:54:19;;;;;;;81.75;42.65;;;-0.50;99.90;;;;;;5096049;28;20020;-74
2022/03/17 05:56:45;;;;;;;88.35;48.40;;;-0.50;99.90;;;;;;5095967;28;20109;-73
2022/03/17 05:59:11;;;;;;;85.75;48.58;;;-0.40;99.90;;;;;;5095795;28;20067;-73
2022/03/17 06:01:36;;;;;;;88.50;47.42;;;-0.30;99.90;;;;;;5095684;28;20039;-72
2022/03/17 06:04:02;;;;;;;83.25;47.95;;;-0.20;99.90;;;;;;5077675;28;20043;-73
2022/03/17 06:06:27;;;;;;;93.90;47.15;;;-0.10;99.90;;;;;;5095694;28;20028;-73
2022/03/17 06:08:53;;;;;;;86.35;45.03;;;0.00;99.90;;;;;;5095800;28;20032;-74
2022/03/17 06:11:18;;;;;;;89.25;42.22;;;0.10;99.90;;;;;;5094851;28;20043;-73
2022/03/17 06:13:44;;;;;;;86.45;44.15;;;0.20;99.90;;;;;;5093760;28;20020;-73
2022/03/17 06:16:10;;;;;;;88.00;43.90;;;0.30;99.90;;;;;;5093399;28;20024;-73
2022/03/17 06:18:35;;;;;;;78.47;42.78;;;0.40;99.90;;;;;;5093290;28;20020;-74
2022/03/17 06:21:01;;;;;;;83.72;42.97;;;0.50;99.90;;;;;;5093200;28;20042;-74
2022/03/17 06:23:26;;;;;;;72.13;38.30;;;0.60;99.90;;;;;;5093387;28;20024;-74
2022/03/17 06:25:52;;;;;;;77.28;41.30;;;0.70;99.90;;;;;;5093366;28;20095;-74
2022/03/17 06:28:18;;;;;;;91.47;44.35;;;0.80;99.90;;;;;;5092186;28;20024;-74
2022/03/17 06:30:44;;;;;;;79.22;40.35;;;0.80;99.60;;;;;;5093594;28;20161;-74
2022/03/17 06:33:10;;;;;;;80.28;40.67;;;0.90;99.10;;;;;;5088106;28;20044;-73
2022/03/17 06:35:36;;;;;;;75.50;40.05;;;1.00;98.20;;;;;;5113268;28;20060;-74
2022/03/17 06:38:04;;;;;;;74.95;40.55;;;1.20;96.70;;;;;;5096266;28;20016;-74
2022/03/17 06:40:30;;;;;;;65.93;35.88;;;1.30;94.50;;;;;;5114740;28;20097;-74
2022/03/17 06:42:57;;;;;;;73.90;38.60;;;1.40;91.50;;;;;;5114615;28;20469;-74
2022/03/17 06:45:24;;;;;;;70.13;38.60;;;1.60;90.50;;;;;;5096549;28;20028;-73
2022/03/17 06:47:49;;;;;;;73.30;37.72;;;1.70;87.90;;;;;;5096907;28;20027;-73
2022/03/17 06:50:17;;;;;;;75.18;41.17;;;1.90;86.70;;;;;;5093510;28;20035;-73
2022/03/17 06:52:43;;;;;;;68.30;38.15;;;2.00;85.60;;;;;;5092824;28;20107;-73
2022/03/17 06:55:09;;;;;;;66.65;36.53;;;2.20;83.80;;;;;;5093013;28;20024;-73
2022/03/17 06:57:35;;;;;;;68.97;36.67;;;2.30;82.50;;;;;;5092570;28;20452;-74
2022/03/17 07:00:07;;;;;;;60.63;34.55;;;2.40;80.40;;;;;;5093099;28;20024;-74
2022/03/17 07:02:32;;;;;;;64.05;33.55;;;2.50;79.50;;;;;;5074388;28;20119;-73
2022/03/17 07:04:58;;;;;;;55.70;31.75;;;2.60;77.30;;;;;;5099017;28;20095;-74
2022/03/17 07:07:23;;;;;;;61.75;32.25;;;2.60;77.00;;;;;;5111834;28;20044;-73
2022/03/17 07:09:49;;;;;;;60.75;31.67;;;2.80;76.20;;;;;;5112676;28;20027;-73
2022/03/17 07:12:15;;;;;;;64.30;35.30;;;2.90;75.90;;;;;;5111552;28;20422;-73
2022/03/17 07:14:40;;;;;;;58.35;30.85;;;3.00;75.00;;;;;;5112920;28;20388;-74
2022/03/17 07:17:07;;;;;;;55.45;30.33;;;3.00;74.10;;;;;;5112670;28;20046;-74
2022/03/17 07:19:33;;;;;;;53.60;29.35;;;3.10;73.10;;;;;;5112477;28;20053;-73
2022/03/17 07:21:58;;;;;;;51.83;28.40;;;3.10;72.50;;;;;;5108390;28;20511;-74
2022/03/17 07:24:24;;;;;;;60.72;32.53;;;3.30;72.70;;;;;;5093550;28;20488;-74
2022/03/17 07:26:49;;;;;;;57.97;32.75;;;3.30;71.90;;;;;;5110815;28;20055;-74
2022/03/17 07:29:15;;;;;;;61.88;31.73;;;3.50;72.10;;;;;;5112350;28;20091;-71
2022/03/17 07:31:40;;;;;;;56.73;32.50;;;3.50;71.00;;;;;;5052211;28;1177994;-72
2022/03/17 07:34:06;;;;;;;54.55;28.65;;;3.60;70.50;;;;;;5096151;28;20030;-72
2022/03/17 07:36:32;;;;;;;50.30;29.50;;;3.80;69.60;;;;;;5114398;28;20473;-72
2022/03/17 07:38:58;;;;;;;52.00;30.52;;;3.90;69.30;;;;;;5113923;28;20054;-73
2022/03/17 07:41:24;;;;;;;51.78;29.33;;;4.00;68.40;;;;;;5114388;28;20022;-72
2022/03/17 07:43:50;;;;;;;52.67;27.48;;;4.10;67.50;;;;;;5096124;28;20063;-72
2022/03/17 07:46:16;;;;;;;50.88;27.27;;;4.20;66.80;;;;;;5114415;28;20027;-72
2022/03/17 07:48:43;;;;;;;45.28;25.17;;;4.20;65.90;;;;;;5114100;28;20026;-73
2022/03/17 07:51:08;;;;;;;47.25;27.38;;;4.30;64.80;;;;;;5113771;28;20110;-71
2022/03/17 07:53:34;;;;;;;42.80;25.67;;;4.40;64.30;;;;;;5095556;28;20110;-72
2022/03/17 07:56:01;;;;;;;43.50;26.10;;;4.50;64.00;;;;;;5095731;28;20060;-73
2022/03/17 07:58:27;;;;;;;47.10;24.77;;;4.70;63.90;;;;;;5111724;28;20023;-72
2022/03/17 08:00:54;;;;;;;37.13;23.67;;;4.80;61.90;;;;;;5094210;28;20039;-73
2022/03/17 08:03:20;;;;;;;36.90;21.58;;;4.90;60.60;;;;;;5091955;28;20458;-72
2022/03/17 08:05:47;;;;;;;39.38;20.77;;;5.00;59.90;;;;;;5093418;28;20091;-73
2022/03/17 08:08:17;;;;;;;38.33;19.25;;;5.10;59.60;;;;;;5093151;28;20050;-72
2022/03/17 08:10:43;;;;;;;36.35;22.23;;;5.20;58.50;;;;;;5093517;28;20142;-72
2022/03/17 08:13:09;;;;;;;31.08;18.40;;;5.30;58.80;;;;;;5093228;28;20065;-72
2022/03/17 08:15:39;;;;;;;36.88;20.90;;;5.40;57.60;;;;;;5092829;28;20024;-72
2022/03/17 08:18:09;;;;;;;35.05;19.92;;;5.50;57.60;;;;;;5093415;28;20114;-72
2022/03/17 08:20:38;;;;;;;34.58;18.23;;;5.40;58.10;;;;;;5093107;28;20016;-74
2022/03/17 08:23:05;;;;;;;31.67;18.33;;;5.60;57.40;;;;;;5075119;28;20082;-74
2022/03/17 08:25:30;;;;;;;34.15;19.17;;;5.70;56.20;;;;;;5093430;28;20119;-74
2022/03/17 08:27:56;;;;;;;33.55;18.52;;;6.00;56.60;;;;;;5075219;28;20524;-74
2022/03/17 08:30:22;;;;;;;28.35;18.15;;;6.00;55.30;;;;;;5093321;28;20048;-74
2022/03/17 08:32:48;;;;;;;28.73;16.65;;;6.00;54.90;;;;;;5103784;28;20052;-74
2022/03/17 08:35:14;;;;;;;28.95;17.20;;;6.10;54.40;;;;;;5113737;28;20361;-75
2022/03/17 08:37:45;;;;;;;29.38;18.48;;;6.30;54.40;;;;;;5113720;28;20024;-74
2022/03/17 08:40:13;;;;;;;27.83;15.70;;;6.40;53.80;;;;;;5113769;28;20051;-75
2022/03/17 08:42:40;;;;;;;27.13;16.88;;;6.40;53.30;;;;;;5113542;28;20019;-74
2022/03/17 08:50:41;;;;;;;24.77;13.73;;;6.40;52.40;;;;;;5113204;28;20039;-73
2022/03/17 08:53:08;;;;;;;21.95;13.25;;;6.70;52.60;;;;;;5116116;28;20043;-74
2022/03/17 08:55:34;;;;;;;23.88;13.68;;;6.60;51.70;;;;;;5099069;28;20384;-75
2022/03/17 08:58:00;;;;;;;21.90;14.10;;;6.70;51.70;;;;;;5099317;28;20027;-74
2022/03/17 09:00:26;;;;;;;23.92;13.38;;;6.80;51.60;;;;;;5099598;28;20472;-74
2022/03/17 09:02:55;;;;;;;19.67;13.05;;;6.70;50.70;;;;;;5117546;28;20023;-75
2022/03/17 09:05:21;;;;;;;20.77;13.13;;;6.80;51.10;;;;;;5099089;28;20049;-74
2022/03/17 09:07:46;;;;;;;24.60;15.95;;;6.80;50.40;;;;;;5117344;28;20068;-74
2022/03/17 09:10:12;;;;;;;24.30;13.82;;;6.80;50.80;;;;;;5117214;28;20027;-74
2022/03/17 09:12:38;;;;;;;23.38;14.93;;;6.90;51.40;;;;;;5098810;28;20023;-74
2022/03/17 09:15:05;;;;;;;21.10;14.13;;;7.10;51.50;;;;;;5098771;28;20024;-75
2022/03/17 09:17:31;;;;;;;22.33;14.65;;;7.00;51.00;;;;;;5116911;28;20023;-74
2022/03/17 09:19:56;;;;;;;26.27;15.52;;;6.90;50.90;;;;;;5098633;28;20023;-75
2022/03/17 09:22:22;;;;;;;26.73;14.68;;;6.90;51.30;;;;;;5099832;28;20038;-74
2022/03/17 09:24:48;;;;;;;42.40;15.13;;;6.70;51.40;;;;;;5116203;28;20129;-74
2022/03/17 09:27:16;;;;;;;25.25;14.27;;;6.80;51.50;;;;;;5098467;28;20076;-74
2022/03/17 09:29:42;;;;;;;26.77;15.55;;;6.90;51.50;;;;;;5116789;28;20476;-75
2022/03/17 09:32:09;;;;;;;30.52;17.02;;;6.90;51.50;;;;;;5098311;28;20104;-75
2022/03/17 09:34:35;;;;;;;23.95;14.25;;;7.00;51.60;;;;;;5098522;28;20107;-75
2022/03/17 09:37:01;;;;;;;18.35;12.40;;;6.90;51.10;;;;;;5116816;28;20027;-74
2022/03/17 09:42:16;;;;;;;20.15;12.80;;;6.80;49.40;;;;;;5116843;28;20034;-75
2022/03/17 09:44:44;;;;;;;25.65;12.32;;;6.90;49.70;;;;;;5116973;28;20100;-74
2022/03/17 09:47:11;;;;;;;23.83;14.82;;;7.00;49.90;;;;;;5116476;28;20031;-75
2022/03/17 09:49:40;;;;;;;24.63;14.20;;;7.20;50.50;;;;;;5116601;28;20061;-74
2022/03/17 09:52:13;;;;;;;22.48;13.25;;;7.30;50.60;;;;;;5098047;28;20019;-73
2022/03/17 09:54:42;;;;;;;18.00;11.57;;;7.20;50.00;;;;;;5098159;28;20020;-75
2022/03/17 09:57:08;;;;;;;20.55;12.73;;;7.30;48.40;;;;;;5095749;28;20027;-74
2022/03/17 09:59:34;;;;;;;23.42;12.48;;;7.20;48.70;;;;;;5115277;28;20119;-73
2022/03/17 10:02:01;;;;;;;27.23;13.02;;;7.20;49.50;;;;;;5115392;28;20023;-74
2022/03/17 10:04:36;;;;;;;18.88;11.90;;;7.20;49.80;;;;;;5097925;28;20385;-74
2022/03/17 10:07:02;;;;;;;19.50;12.75;;;7.30;48.80;;;;;;5116100;28;20039;-74
2022/03/17 10:09:29;;;;;;;17.42;11.00;;;7.20;48.20;;;;;;5115867;28;20525;-74
2022/03/17 10:12:09;;;;;;;16.55;10.10;;;7.10;47.90;;;;;;5115842;28;20380;-74
2022/03/17 10:14:46;;;;;;;16.75;11.60;;;7.20;47.20;;;;;;5116258;28;20020;-75
2022/03/17 10:17:39;;;;;;;19.58;13.13;;;7.20;48.10;;;;;;5115654;28;20023;-74
2022/03/17 10:20:15;;;;;;;20.48;11.40;;;7.30;48.10;;;;;;5114007;28;20062;-75
2022/03/17 10:22:49;;;;;;;18.48;11.00;;;7.30;47.30;;;;;;5114041;28;20027;-73
2022/03/17 10:25:17;;;;;;;19.27;12.25;;;7.60;47.10;;;;;;5113965;28;20061;-73
2022/03/17 10:27:45;;;;;;;20.38;12.90;;;7.50;47.20;;;;;;5113829;28;20078;-74
2022/03/17 10:30:12;;;;;;;18.92;11.88;;;7.50;47.90;;;;;;5113538;28;20024;-74
2022/03/17 10:32:38;;;;;;;23.40;13.60;;;7.50;48.10;;;;;;5114206;28;20055;-74
2022/03/17 10:35:08;;;;;;;22.95;13.85;;;7.60;48.90;;;;;;5115758;28;20439;-74
2022/03/17 10:37:36;;;;;;;26.10;12.65;;;7.70;48.90;;;;;;5115705;28;20040;-75
2022/03/17 10:40:08;;;;;;;24.27;13.65;;;7.70;48.90;;;;;;5115584;28;20016;-75
2022/03/17 10:42:34;;;;;;;23.10;14.05;;;7.70;48.70;;;;;;5097491;28;20065;-74
2022/03/17 10:45:05;;;;;;;27.42;14.13;;;7.50;48.60;;;;;;5115608;28;20089;-74
2022/03/17 10:47:39;;;;;;;22.45;14.77;;;7.40;48.50;;;;;;5097311;28;20035;-73
2022/03/17 10:50:07;;;;;;;18.55;12.90;;;7.60;49.30;;;;;;5115471;28;20019;-74
2022/03/17 10:52:50;;;;;;;22.75;14.68;;;7.40;49.00;;;;;;5115516;28;20023;-74
2022/03/17 10:55:21;;;;;;;23.42;12.88;;;7.30;49.40;;;;;;5097171;28;20929;-75
2022/03/17 10:57:48;;;;;;;24.50;13.15;;;7.40;49.30;;;;;;5115379;28;20024;-73
2022/03/17 11:00:26;;;;;;;21.80;14.18;;;7.40;48.80;;;;;;5097059;28;20107;-74
2022/03/17 11:02:57;;;;;;;21.52;13.57;;;7.50;49.00;;;;;;5099876;28;20020;-74
2022/03/17 11:05:27;;;;;;;24.20;13.10;;;7.50;49.30;;;;;;5115194;28;20027;-75
2022/03/17 11:07:54;;;;;;;25.38;14.48;;;7.50;49.20;;;;;;5115040;28;20031;-74
2022/03/17 11:10:22;;;;;;;27.48;14.88;;;7.60;49.30;;;;;;5115155;28;20089;-75
2022/03/17 11:12:50;;;;;;;23.90;14.00;;;7.80;49.50;;;;;;5115066;28;20098;-74
2022/03/17 11:15:24;;;;;;;26.20;14.20;;;7.80;49.60;;;;;;5114378;27;20027;-75
2022/03/17 11:17:51;;;;;;;22.65;13.68;;;7.90;49.20;;;;;;5114991;28;20051;-73
2022/03/17 11:20:20;;;;;;;27.02;13.82;;;7.80;48.20;;;;;;5113642;28;20473;-74
2022/03/17 11:23:09;;;;;;;19.35;12.35;;;7.90;48.50;;;;;;5114713;28;20055;-75
2022/03/17 11:25:35;;;;;;;19.77;13.10;;;8.10;48.40;;;;;;5113583;28;20030;-74
2022/03/17 11:28:03;;;;;;;24.20;14.48;;;7.90;48.10;;;;;;5114497;28;20032;-73
2022/03/17 11:30:42;;;;;;;23.60;13.43;;;7.90;47.70;;;;;;5114588;28;20023;-75
2022/03/17 11:33:43;;;;;;;24.25;14.90;;;7.80;47.60;;;;;;5128020;27;20047;-74
2022/03/17 11:36:08;;;;;;;17.55;12.15;;;8.00;47.80;;;;;;5130688;27;20036;-74
2022/03/17 11:38:39;;;;;;;19.75;12.48;;;7.90;46.70;;;;;;5135209;27;20064;-74
2022/03/17 11:41:21;;;;;;;32.08;24.08;;;7.90;46.80;;;;;;5135070;27;20080;-74
2022/03/17 11:43:46;;;;;;;23.97;13.27;;;8.00;47.50;;;;;;5135080;27;20088;-75
2022/03/17 11:46:21;;;;;;;28.10;14.13;;;7.90;46.50;;;;;;5134931;27;20257;-74
2022/03/17 11:48:54;;;;;;;22.70;13.98;;;8.00;46.90;;;;;;5116503;27;20007;-75
2022/03/17 11:51:20;;;;;;;20.42;14.50;;;7.90;47.40;;;;;;5134840;27;20041;-74
2022/03/17 11:53:52;;;;;;;20.55;12.77;;;7.90;46.90;;;;;;5134770;27;20519;-74
2022/03/17 11:56:37;;;;;;;29.67;14.63;;;8.00;47.70;;;;;;5134615;27;20023;-74
2022/03/17 11:59:07;;;;;;;25.58;14.52;;;8.00;48.40;;;;;;5134748;27;20033;-75
2022/03/17 12:01:34;;;;;;;20.73;12.48;;;8.00;48.50;;;;;;5134731;27;20118;-75
2022/03/17 12:04:03;;;;;;;20.65;12.73;;;7.70;47.90;;;;;;5134738;27;20027;-76
2022/03/17 12:06:31;;;;;;;27.58;13.57;;;7.80;48.00;;;;;;5134842;27;20425;-73
2022/03/17 12:09:07;;;;;;;20.40;12.98;;;7.90;47.50;;;;;;5134679;27;20031;-74
2022/03/17 12:11:50;;;;;;;22.20;11.82;;;7.90;46.90;;;;;;5134776;27;20022;-74
2022/03/17 12:14:19;;;;;;;22.58;12.77;;;8.10;47.00;;;;;;5134672;27;20544;-75
2022/03/17 12:16:58;;;;;;;18.85;11.10;;;8.20;47.00;;;;;;5116176;28;20046;-74
2022/03/17 12:19:41;;;;;;;18.02;11.77;;;8.20;45.90;;;;;;5134490;27;20027;-74
2022/03/17 12:22:32;;;;;;;17.38;11.60;;;8.20;46.40;;;;;;5134305;27;20037;-74
2022/03/17 12:25:13;;;;;;;21.40;11.65;;;8.00;45.50;;;;;;5134613;28;20027;-75
2022/03/17 12:27:40;;;;;;;20.35;11.60;;;8.10;45.80;;;;;;5133630;27;20433;-74
2022/03/17 12:30:09;;;;;;;19.05;11.30;;;8.10;44.60;;;;;;5134372;28;20011;-75
2022/03/17 12:32:52;;;;;;;15.45;9.98;;;8.10;44.30;;;;;;5115671;28;20104;-74
2022/03/17 12:35:20;;;;;;;18.83;11.43;;;8.00;44.40;;;;;;5134341;28;20023;-75
2022/03/17 12:37:45;;;;;;;16.33;10.15;;;8.00;44.90;;;;;;5134285;27;20600;-73
2022/03/17 12:40:20;;;;;;;21.38;10.18;;;8.00;44.30;;;;;;5134136;28;20024;-75
2022/03/17 12:42:47;;;;;;;18.05;10.85;;;8.10;44.30;;;;;;5111211;28;20036;-75
2022/03/17 12:45:16;;;;;;;14.52;8.88;;;8.10;44.00;;;;;;5111812;28;20020;-74
2022/03/17 12:47:47;;;;;;;16.65;10.63;;;8.20;44.30;;;;;;5111778;28;20051;-74
2022/03/17 12:50:15;;;;;;;14.27;9.70;;;8.20;43.30;;;;;;5093982;28;20105;-75
2022/03/17 12:52:43;;;;;;;14.65;8.35;;;8.30;43.10;;;;;;5111521;28;20028;-75
2022/03/17 12:55:14;;;;;;;15.02;9.73;;;8.40;43.40;;;;;;5111913;28;20020;-74
2022/03/17 12:57:41;;;;;;;15.63;7.93;;;8.20;42.10;;;;;;5111629;28;20039;-75